createdAt,value
2018-08-11T00:00:44.710Z,60334.88
2018-08-11T00:03:13.010Z,60320.66
2018-08-11T00:05:41.219Z,60318.62
2018-08-11T00:08:09.486Z,60326.75
2018-08-11T00:10:37.742Z,60318.62
2018-08-11T00:13:06.038Z,60317.61
2018-08-11T00:15:34.250Z,60327.77
2018-08-11T00:18:02.487Z,60321.67
2018-08-11T00:20:30.798Z,60306.43
2018-08-11T00:22:59.017Z,60340.98
2018-08-11T00:25:27.645Z,60314.56
2018-08-11T00:27:55.876Z,60328.79
2018-08-11T00:30:24.155Z,60329.80
2018-08-11T00:32:52.482Z,60334.88
2018-08-11T00:35:20.708Z,60324.72
2018-08-11T00:37:50.566Z,60312.53
2018-08-11T00:40:19.912Z,60311.51
2018-08-11T00:42:49.342Z,60346.06
2018-08-11T00:45:17.847Z,60326.75
2018-08-11T00:47:46.157Z,60323.71
2018-08-11T00:50:24.814Z,60311.51
2018-08-11T00:52:53.469Z,60313.54
2018-08-11T00:55:21.675Z,60325.74
2018-08-11T00:57:49.911Z,60337.93
2018-08-11T01:00:19.276Z,60310.50
2018-08-11T01:02:47.726Z,60329.80
2018-08-11T01:05:17.881Z,60317.61
2018-08-11T01:07:46.500Z,60354.19
2018-08-11T01:10:15.238Z,60350.12
2018-08-11T01:12:44.212Z,60333.87
2018-08-11T01:15:15.239Z,60313.54
2018-08-11T01:17:44.008Z,60345.04
2018-08-11T01:20:12.739Z,60323.71
2018-08-11T01:22:41.815Z,60318.62
2018-08-11T01:25:10.902Z,60342.00
2018-08-11T01:27:39.154Z,60345.04
2018-08-11T01:30:13.199Z,60319.64
2018-08-11T01:32:41.451Z,60333.87
2018-08-11T01:35:10.571Z,60321.67
2018-08-11T01:37:39.820Z,60308.46
2018-08-11T01:40:09.706Z,60326.75
2018-08-11T01:42:38.034Z,60314.56
2018-08-11T01:45:07.078Z,60322.69
2018-08-11T01:47:35.425Z,60342.00
2018-08-11T01:50:03.870Z,60315.57
2018-08-11T01:52:32.094Z,60332.85
2018-08-11T01:55:00.346Z,60333.87
2018-08-11T01:57:28.597Z,60325.74
2018-08-11T01:59:56.955Z,60320.66
2018-08-11T02:02:25.206Z,60329.80
2018-08-11T02:04:53.470Z,60324.72
2018-08-11T02:07:21.894Z,60326.75
2018-08-11T02:09:50.114Z,60318.62
2018-08-11T02:12:18.409Z,60333.87
2018-08-11T02:14:46.730Z,60334.88
2018-08-11T02:17:14.998Z,60360.29
2018-08-11T02:19:43.191Z,60339.96
2018-08-11T02:22:11.439Z,60317.61
2018-08-11T02:24:39.720Z,60330.82
2018-08-11T02:27:08.063Z,60318.62
2018-08-11T02:29:36.382Z,60314.56
2018-08-11T02:32:04.838Z,60318.62
2018-08-11T02:34:33.150Z,60339.96
2018-08-11T02:37:01.389Z,60335.90
2018-08-11T02:39:29.661Z,60337.93
2018-08-11T02:41:57.902Z,60352.16
2018-08-11T02:44:26.154Z,60340.98
2018-08-11T02:46:54.397Z,60317.61
2018-08-11T02:49:22.705Z,60335.90
2018-08-11T02:51:50.928Z,60335.90
2018-08-11T02:54:19.158Z,60322.69
2018-08-11T02:56:47.426Z,60344.03
2018-08-11T02:59:19.826Z,60344.03
2018-08-11T03:01:48.019Z,60329.80
2018-08-11T03:04:16.215Z,60346.06
2018-08-11T03:06:44.430Z,60358.25
2018-08-11T03:09:12.610Z,60346.06
2018-08-11T03:11:40.887Z,60355.21
2018-08-11T03:14:09.137Z,60368.42
2018-08-11T03:16:37.330Z,60342.00
2018-08-11T03:19:05.595Z,60347.08
2018-08-11T03:21:33.830Z,60348.09
2018-08-11T03:24:02.304Z,60325.74
2018-08-11T03:26:30.482Z,60359.27
2018-08-11T03:28:58.714Z,60335.90
2018-08-11T03:31:26.958Z,60357.24
2018-08-11T03:33:55.190Z,60353.18
2018-08-11T03:36:23.443Z,60374.52
2018-08-11T03:38:51.629Z,60356.22
2018-08-11T03:41:19.849Z,60367.40
2018-08-11T03:43:48.063Z,60334.88
2018-08-11T03:46:16.278Z,60360.29
2018-08-11T03:48:44.520Z,60386.71
2018-08-11T03:51:12.726Z,60352.16
2018-08-11T03:53:40.971Z,60368.42
2018-08-11T03:56:09.318Z,60368.42
2018-08-11T03:58:37.529Z,60367.40
2018-08-11T04:01:05.929Z,60368.42
2018-08-11T04:03:34.180Z,60348.09
2018-08-11T04:06:02.358Z,60368.42
2018-08-11T04:08:31.079Z,60360.29
2018-08-11T04:10:59.319Z,60351.14
2018-08-11T04:13:27.705Z,60377.56
2018-08-11T04:15:55.958Z,60380.61
2018-08-11T04:18:24.202Z,60370.45
2018-08-11T04:20:52.518Z,60348.09
2018-08-11T04:23:20.746Z,60361.30
2018-08-11T04:25:49.007Z,60358.25
2018-08-11T04:28:17.333Z,60389.76
2018-08-11T04:30:45.530Z,60344.03
2018-08-11T04:33:13.794Z,60353.18
2018-08-11T04:35:42.138Z,60373.50
2018-08-11T04:38:10.379Z,60351.14
2018-08-11T04:40:38.566Z,60336.91
2018-08-11T04:43:06.742Z,60377.56
2018-08-11T04:45:34.902Z,60351.14
2018-08-11T04:48:03.131Z,60345.04
2018-08-11T04:50:31.298Z,60371.46
2018-08-11T04:52:59.475Z,60381.63
2018-08-11T04:55:27.662Z,60369.43
2018-08-11T04:57:55.851Z,60340.98
2018-08-11T05:00:24.034Z,60361.30
2018-08-11T05:02:52.734Z,60374.52
2018-08-11T05:05:21.006Z,60387.72
2018-08-11T05:07:49.669Z,60367.40
2018-08-11T05:10:17.848Z,60358.25
2018-08-11T05:12:46.094Z,60353.18
2018-08-11T05:15:14.317Z,60356.22
2018-08-11T05:17:42.646Z,60353.18
2018-08-11T05:20:11.016Z,60372.48
2018-08-11T05:22:39.303Z,60351.14
2018-08-11T05:25:07.492Z,60356.22
2018-08-11T05:27:35.745Z,60365.37
2018-08-11T05:30:04.851Z,60359.27
2018-08-11T05:32:33.103Z,60361.30
2018-08-11T05:35:01.277Z,60370.45
2018-08-11T05:37:29.452Z,60345.04
2018-08-11T05:39:57.636Z,60369.43
2018-08-11T05:42:25.818Z,60365.37
2018-08-11T05:44:54.031Z,60384.68
2018-08-11T05:47:22.239Z,60357.24
2018-08-11T05:49:50.542Z,60357.24
2018-08-11T05:52:18.725Z,60366.39
2018-08-11T05:54:46.965Z,60379.59
2018-08-11T05:57:15.243Z,60371.46
2018-08-11T05:59:43.494Z,60344.03
2018-08-11T06:02:11.726Z,60390.77
2018-08-11T06:04:40.021Z,60367.40
2018-08-11T06:07:08.233Z,60364.35
2018-08-11T06:09:36.446Z,60365.37
2018-08-11T06:12:04.681Z,60361.30
2018-08-11T06:14:32.931Z,60369.43
2018-08-11T06:17:01.144Z,60331.84
2018-08-11T06:19:29.331Z,60365.37
2018-08-11T06:21:57.514Z,60371.46
2018-08-11T06:24:25.765Z,60359.27
2018-08-11T06:26:53.946Z,60374.52
2018-08-11T06:29:22.140Z,60370.45
2018-08-11T06:31:50.504Z,60368.42
2018-08-11T06:34:18.655Z,60347.08
2018-08-11T06:36:46.902Z,60353.18
2018-08-11T06:39:15.448Z,60374.52
2018-08-11T06:41:44.142Z,60368.42
2018-08-11T06:44:13.000Z,60360.29
2018-08-11T06:46:41.324Z,60366.39
2018-08-11T06:49:09.829Z,60379.59
2018-08-11T06:51:38.222Z,60387.72
2018-08-11T06:54:06.595Z,60352.16
2018-08-11T06:56:34.816Z,60344.03
2018-08-11T06:59:03.090Z,60364.35
2018-08-11T07:01:31.375Z,60354.19
2018-08-11T07:03:59.789Z,60343.01
2018-08-11T07:06:27.994Z,60361.30
2018-08-11T07:08:56.317Z,60355.21
2018-08-11T07:11:24.607Z,60355.21
2018-08-11T07:13:52.855Z,60361.30
2018-08-11T07:16:21.244Z,60343.01
2018-08-11T07:18:49.480Z,60364.35
2018-08-11T07:21:17.886Z,60373.50
2018-08-11T07:23:46.146Z,60371.46
2018-08-11T07:26:14.523Z,60339.96
2018-08-11T07:28:42.789Z,60347.08
2018-08-11T07:31:11.016Z,60353.18
2018-08-11T07:33:39.322Z,60323.71
2018-08-11T07:36:07.819Z,60345.04
2018-08-11T07:38:36.166Z,60320.66
2018-08-11T07:41:04.544Z,60374.52
2018-08-11T07:43:32.872Z,60338.95
2018-08-11T07:46:01.171Z,60340.98
2018-08-11T07:48:29.475Z,60347.08
2018-08-11T07:50:57.716Z,60323.71
2018-08-11T07:53:25.942Z,60348.09
2018-08-11T07:55:54.289Z,60352.16
2018-08-11T07:58:22.439Z,60340.98
2018-08-11T08:00:50.669Z,60340.98
2018-08-11T08:03:18.831Z,60333.87
2018-08-11T08:05:47.054Z,60323.71
2018-08-11T08:08:15.211Z,60339.96
2018-08-11T08:10:43.390Z,60330.82
2018-08-11T08:13:11.574Z,60345.04
2018-08-11T08:15:39.794Z,60351.14
2018-08-11T08:18:08.066Z,60345.04
2018-08-11T08:20:36.241Z,60337.93
2018-08-11T08:23:04.459Z,60343.01
2018-08-11T08:25:32.620Z,60318.62
2018-08-11T08:28:00.844Z,60336.91
2018-08-11T08:30:29.031Z,60357.24
2018-08-11T08:32:57.198Z,60332.85
2018-08-11T08:35:25.373Z,60326.75
2018-08-11T08:37:53.584Z,60323.71
2018-08-11T08:40:21.779Z,60354.19
2018-08-11T08:42:49.983Z,60319.64
2018-08-11T08:45:18.229Z,60337.93
2018-08-11T08:47:46.462Z,60316.59
2018-08-11T08:50:14.652Z,60315.57
2018-08-11T08:52:42.830Z,60324.72
2018-08-11T08:55:11.018Z,60323.71
2018-08-11T08:57:39.203Z,60324.72
2018-08-11T09:00:07.383Z,60312.53
2018-08-11T09:02:35.614Z,60340.98
2018-08-11T09:05:03.894Z,60323.71
2018-08-11T09:07:32.099Z,60306.43
2018-08-11T09:10:00.278Z,60321.67
2018-08-11T09:12:28.442Z,60301.35
2018-08-11T09:14:56.634Z,60291.19
2018-08-11T09:17:24.816Z,60320.66
2018-08-11T09:19:53.041Z,60290.17
2018-08-11T09:22:21.279Z,60295.25
2018-08-11T09:24:49.470Z,60262.74
2018-08-11T09:27:17.720Z,60314.56
2018-08-11T09:29:45.958Z,60262.74
2018-08-11T09:32:14.162Z,60265.79
2018-08-11T09:34:42.366Z,60294.24
2018-08-11T09:37:10.534Z,60280.01
2018-08-11T09:39:38.710Z,60283.06
2018-08-11T09:42:06.910Z,60273.91
2018-08-11T09:44:35.078Z,60283.06
2018-08-11T09:47:03.284Z,60286.11
2018-08-11T09:49:31.482Z,60265.79
2018-08-11T09:51:59.649Z,60254.61
2018-08-11T09:54:27.842Z,60262.74
2018-08-11T09:56:56.019Z,60271.88
2018-08-11T09:59:24.262Z,60253.59
2018-08-11T10:01:57.666Z,60237.33
2018-08-11T10:04:25.838Z,60239.36
2018-08-11T10:06:54.005Z,60220.06
2018-08-11T10:09:22.192Z,60232.25
2018-08-11T10:11:50.383Z,60234.29
2018-08-11T10:14:18.546Z,60232.25
2018-08-11T10:16:46.750Z,60223.11
2018-08-11T10:19:14.918Z,60225.14
2018-08-11T10:21:43.090Z,60219.04
2018-08-11T10:24:11.286Z,60226.16
2018-08-11T10:26:39.486Z,60218.03
2018-08-11T10:29:07.729Z,60204.82
2018-08-11T10:31:35.902Z,60224.12
2018-08-11T10:34:04.090Z,60228.19
2018-08-11T10:36:32.302Z,60217.01
2018-08-11T10:39:00.487Z,60194.66
2018-08-11T10:41:28.682Z,60185.51
2018-08-11T10:43:56.883Z,60191.61
2018-08-11T10:46:25.075Z,60193.64
2018-08-11T10:48:53.278Z,60197.70
2018-08-11T10:51:21.491Z,60197.70
2018-08-11T10:53:49.657Z,60183.48
2018-08-11T10:56:17.843Z,60196.69
2018-08-11T10:58:46.030Z,60219.04
2018-08-11T11:01:14.210Z,60215.99
2018-08-11T11:03:42.388Z,60209.90
2018-08-11T11:06:10.558Z,60207.86
2018-08-11T11:08:38.740Z,60227.17
2018-08-11T11:11:06.926Z,60250.54
2018-08-11T11:13:35.118Z,60229.20
2018-08-11T11:16:03.303Z,60237.33
2018-08-11T11:18:31.482Z,60227.17
2018-08-11T11:20:59.667Z,60203.80
2018-08-11T11:23:27.840Z,60212.95
2018-08-11T11:25:56.010Z,60210.91
2018-08-11T11:28:24.177Z,60193.64
2018-08-11T11:30:53.240Z,60192.62
2018-08-11T11:33:21.419Z,60207.86
2018-08-11T11:35:49.591Z,60186.52
2018-08-11T11:38:17.801Z,60208.88
2018-08-11T11:40:45.982Z,60198.72
2018-08-11T11:43:14.191Z,60194.66
2018-08-11T11:45:42.368Z,60200.75
2018-08-11T11:48:10.534Z,60220.06
2018-08-11T11:50:38.737Z,60205.83
2018-08-11T11:53:06.914Z,60208.88
2018-08-11T11:55:35.111Z,60199.74
2018-08-11T11:58:03.313Z,60201.77
2018-08-11T12:00:31.482Z,60199.74
2018-08-11T12:02:59.687Z,60185.51
2018-08-11T12:05:27.874Z,60194.66
2018-08-11T12:07:56.051Z,60194.66
2018-08-11T12:10:24.238Z,60214.98
2018-08-11T12:12:52.428Z,60206.85
2018-08-11T12:15:20.607Z,60180.43
2018-08-11T12:17:48.787Z,60169.25
2018-08-11T12:20:16.954Z,60187.54
2018-08-11T12:22:45.140Z,60195.67
2018-08-11T12:25:13.334Z,60189.57
2018-08-11T12:27:41.527Z,60201.77
2018-08-11T12:30:10.835Z,60194.66
2018-08-11T12:32:39.046Z,60196.69
2018-08-11T12:35:07.261Z,60188.56
2018-08-11T12:37:35.442Z,60223.11
2018-08-11T12:40:03.740Z,60204.82
2018-08-11T12:42:31.927Z,60199.74
2018-08-11T12:45:00.123Z,60205.83
2018-08-11T12:47:28.513Z,60218.03
2018-08-11T12:49:56.685Z,60208.88
2018-08-11T12:52:24.910Z,60221.07
2018-08-11T12:54:53.087Z,60209.90
2018-08-11T12:57:21.311Z,60225.14
2018-08-11T12:59:49.499Z,60224.12
2018-08-11T13:02:17.687Z,60206.85
2018-08-11T13:04:45.862Z,60202.79
2018-08-11T13:07:14.063Z,60210.91
2018-08-11T13:09:42.238Z,60217.01
2018-08-11T13:12:10.521Z,60223.11
2018-08-11T13:14:38.683Z,60202.79
2018-08-11T13:17:06.875Z,60218.03
2018-08-11T13:19:35.090Z,60226.16
2018-08-11T13:22:03.266Z,60202.79
2018-08-11T13:24:31.435Z,60206.85
2018-08-11T13:26:59.678Z,60220.06
2018-08-11T13:29:27.934Z,60198.72
2018-08-11T13:31:56.153Z,60208.88
2018-08-11T13:34:24.326Z,60204.82
2018-08-11T13:36:52.537Z,60204.82
2018-08-11T13:39:20.718Z,60205.83
2018-08-11T13:41:49.949Z,60179.41
2018-08-11T13:44:19.233Z,60170.27
2018-08-11T13:46:47.445Z,60200.75
2018-08-11T13:49:15.651Z,60184.49
2018-08-11T13:51:43.835Z,60209.90
2018-08-11T13:54:12.033Z,60205.83
2018-08-11T13:56:40.242Z,60195.67
2018-08-11T13:59:08.684Z,60203.80
2018-08-11T14:01:36.978Z,60190.59
2018-08-11T14:04:05.140Z,60198.72
2018-08-11T14:06:33.315Z,60198.72
2018-08-11T14:09:01.501Z,60194.66
2018-08-11T14:11:29.674Z,60186.52
2018-08-11T14:13:57.859Z,60212.95
2018-08-11T14:16:26.095Z,60187.54
2018-08-11T14:18:54.306Z,60210.91
2018-08-11T14:21:22.492Z,60208.88
2018-08-11T14:23:50.654Z,60209.90
2018-08-11T14:26:18.834Z,60185.51
2018-08-11T14:28:47.002Z,60219.04
2018-08-11T14:31:15.180Z,60199.74
2018-08-11T14:33:43.359Z,60214.98
2018-08-11T14:36:11.560Z,60205.83
2018-08-11T14:38:39.757Z,60224.12
2018-08-11T14:41:07.917Z,60190.59
2018-08-11T14:43:36.122Z,60215.99
2018-08-11T14:46:04.311Z,60212.95
2018-08-11T14:48:32.481Z,60208.88
2018-08-11T14:51:00.689Z,60233.27
2018-08-11T14:53:29.030Z,60200.75
2018-08-11T14:55:57.301Z,60193.64
2018-08-11T14:58:25.473Z,60194.66
2018-08-11T15:00:53.658Z,60203.80
2018-08-11T15:03:21.826Z,60211.93
2018-08-11T15:05:49.997Z,60195.67
2018-08-11T15:08:18.205Z,60189.57
2018-08-11T15:10:46.414Z,60224.12
2018-08-11T15:13:14.591Z,60206.85
2018-08-11T15:15:42.811Z,60210.91
2018-08-11T15:18:10.974Z,60210.91
2018-08-11T15:20:39.150Z,60202.79
2018-08-11T15:23:07.350Z,60208.88
2018-08-11T15:25:35.551Z,60213.96
2018-08-11T15:28:03.787Z,60201.77
2018-08-11T15:30:31.885Z,60193.64
2018-08-11T15:33:00.052Z,60185.51
2018-08-11T15:35:28.231Z,60210.91
2018-08-11T15:37:56.414Z,60205.83
2018-08-11T15:40:24.574Z,60209.90
2018-08-11T15:42:52.758Z,60215.99
2018-08-11T15:45:20.925Z,60205.83
2018-08-11T15:47:49.087Z,60209.90
2018-08-11T15:50:17.251Z,60209.90
2018-08-11T15:52:45.438Z,60206.85
2018-08-11T15:55:13.608Z,60222.09
2018-08-11T15:57:41.767Z,60212.95
2018-08-11T16:00:09.965Z,60215.99
2018-08-11T16:02:38.622Z,60205.83
2018-08-11T16:05:06.902Z,60207.86
2018-08-11T16:07:35.110Z,60223.11
2018-08-11T16:10:03.338Z,60219.04
2018-08-11T16:12:31.522Z,60225.14
2018-08-11T16:14:59.696Z,60224.12
2018-08-11T16:17:27.878Z,60203.80
2018-08-11T16:19:56.038Z,60210.91
2018-08-11T16:22:24.205Z,60209.90
2018-08-11T16:24:52.382Z,60221.07
2018-08-11T16:27:20.570Z,60249.53
2018-08-11T16:29:48.748Z,60210.91
2018-08-11T16:32:16.918Z,60208.88
2018-08-11T16:34:45.125Z,60196.69
2018-08-11T16:37:13.287Z,60240.38
2018-08-11T16:39:41.458Z,60202.79
2018-08-11T16:42:09.634Z,60211.93
2018-08-11T16:44:37.883Z,60203.80
2018-08-11T16:47:06.104Z,60210.91
2018-08-11T16:49:34.286Z,60200.75
2018-08-11T16:52:02.562Z,60191.61
2018-08-11T16:54:30.733Z,60224.12
2018-08-11T16:56:58.938Z,60227.17
2018-08-11T16:59:27.113Z,60199.74
2018-08-11T17:01:55.378Z,60224.12
2018-08-11T17:04:23.553Z,60234.29
2018-08-11T17:06:51.729Z,60198.72
2018-08-11T17:09:19.903Z,60232.25
2018-08-11T17:11:48.086Z,60224.12
2018-08-11T17:14:16.308Z,60219.04
2018-08-11T17:16:44.467Z,60234.29
2018-08-11T17:19:12.638Z,60223.11
2018-08-11T17:21:40.806Z,60212.95
2018-08-11T17:24:08.987Z,60201.77
2018-08-11T17:26:37.167Z,60219.04
2018-08-11T17:29:05.378Z,60237.33
2018-08-11T17:31:33.562Z,60218.03
2018-08-11T17:34:01.755Z,60241.40
2018-08-11T17:36:29.918Z,60219.04
2018-08-11T17:38:58.095Z,60230.22
2018-08-11T17:41:26.247Z,60235.30
2018-08-11T17:43:54.413Z,60233.27
2018-08-11T17:46:22.619Z,60230.22
2018-08-11T17:48:50.794Z,60218.03
2018-08-11T17:51:19.008Z,60251.56
2018-08-11T17:53:47.242Z,60239.36
2018-08-11T17:56:15.411Z,60219.04
2018-08-11T17:58:43.587Z,60234.29
2018-08-11T18:01:11.762Z,60242.41
2018-08-11T18:03:39.945Z,60247.49
2018-08-11T18:06:08.175Z,60217.01
2018-08-11T18:08:36.408Z,60239.36
2018-08-11T18:11:04.680Z,60222.09
2018-08-11T18:13:32.863Z,60217.01
2018-08-11T18:16:01.085Z,60242.41
2018-08-11T18:18:29.231Z,60249.53
2018-08-11T18:20:57.606Z,60241.40
2018-08-11T18:23:25.802Z,60282.04
2018-08-11T18:25:53.958Z,60236.32
2018-08-11T18:28:22.175Z,60246.48
2018-08-11T18:30:50.832Z,60242.41
2018-08-11T18:33:18.998Z,60258.67
2018-08-11T18:35:47.204Z,60247.49
2018-08-11T18:38:15.412Z,60245.46
2018-08-11T18:40:43.578Z,60240.38
2018-08-11T18:43:11.754Z,60242.41
2018-08-11T18:45:39.985Z,60232.25
2018-08-11T18:48:08.182Z,60237.33
2018-08-11T18:50:36.354Z,60249.53
2018-08-11T18:53:04.549Z,60254.61
2018-08-11T18:55:32.723Z,60268.83
2018-08-11T18:58:00.934Z,60243.43
2018-08-11T19:00:29.128Z,60274.93
2018-08-11T19:02:57.337Z,60276.96
2018-08-11T19:05:25.538Z,60265.79
2018-08-11T19:07:53.720Z,60255.63
2018-08-11T19:10:21.940Z,60260.71
2018-08-11T19:12:50.135Z,60233.27
2018-08-11T19:15:18.362Z,60253.59
2018-08-11T19:17:46.551Z,60261.72
2018-08-11T19:20:14.841Z,60271.88
2018-08-11T19:22:43.025Z,60262.74
2018-08-11T19:25:12.204Z,60264.77
2018-08-11T19:27:40.418Z,60259.69
2018-08-11T19:30:09.970Z,60269.85
2018-08-11T19:32:38.710Z,60265.79
2018-08-11T19:35:07.030Z,60263.75
2018-08-11T19:37:35.726Z,60267.82
2018-08-11T19:40:04.734Z,60271.88
2018-08-11T19:42:32.918Z,60259.69
2018-08-11T19:45:01.151Z,60267.82
2018-08-11T19:47:29.322Z,60290.17
2018-08-11T19:49:57.534Z,60296.27
2018-08-11T19:52:25.704Z,60274.93
2018-08-11T19:54:53.922Z,60266.80
2018-08-11T19:57:22.167Z,60305.41
2018-08-11T19:59:50.354Z,60266.80
2018-08-11T20:02:18.549Z,60286.11
2018-08-11T20:04:46.749Z,60285.09
2018-08-11T20:07:15.100Z,60284.07
2018-08-11T20:09:43.137Z,60287.12
2018-08-11T20:12:11.326Z,60304.40
2018-08-11T20:14:39.535Z,60282.04
2018-08-11T20:17:07.726Z,60295.25
2018-08-11T20:19:35.968Z,60289.16
2018-08-11T20:22:04.203Z,60290.17
2018-08-11T20:24:32.418Z,60294.24
2018-08-11T20:27:00.639Z,60299.32
2018-08-11T20:29:28.830Z,60271.88
2018-08-11T20:31:57.046Z,60309.48
2018-08-11T20:34:25.231Z,60299.32
2018-08-11T20:36:53.430Z,60296.27
2018-08-11T20:39:21.633Z,60310.50
2018-08-11T20:41:49.834Z,60302.37
2018-08-11T20:44:18.049Z,60303.38
2018-08-11T20:46:46.326Z,60289.16
2018-08-11T20:49:14.554Z,60297.29
2018-08-11T20:51:42.751Z,60301.35
2018-08-11T20:54:10.967Z,60297.29
2018-08-11T20:56:39.225Z,60285.09
2018-08-11T20:59:07.463Z,60301.35
2018-08-11T21:01:35.754Z,60308.46
2018-08-11T21:04:03.926Z,60309.48
2018-08-11T21:06:32.118Z,60302.37
2018-08-11T21:09:00.343Z,60312.53
2018-08-11T21:11:28.523Z,60301.35
2018-08-11T21:13:56.742Z,60298.30
2018-08-11T21:16:24.966Z,60324.72
2018-08-11T21:18:53.594Z,60325.74
2018-08-11T21:21:21.826Z,60317.61
2018-08-11T21:23:50.073Z,60324.72
2018-08-11T21:26:18.213Z,60300.34
2018-08-11T21:28:46.444Z,60318.62
2018-08-11T21:31:14.858Z,60312.53
2018-08-11T21:33:43.054Z,60316.59
2018-08-11T21:36:11.285Z,60314.56
2018-08-11T21:38:39.514Z,60319.64
2018-08-11T21:41:07.698Z,60304.40
2018-08-11T21:43:35.907Z,60323.71
2018-08-11T21:46:04.464Z,60300.34
2018-08-11T21:48:33.052Z,60308.46
2018-08-11T21:51:01.238Z,60314.56
2018-08-11T21:53:29.482Z,60317.61
2018-08-11T21:55:57.722Z,60330.82
2018-08-11T21:58:25.910Z,60316.59
2018-08-11T22:00:58.666Z,60304.40
2018-08-11T22:03:26.874Z,60330.82
2018-08-11T22:05:55.074Z,60305.41
2018-08-11T22:08:23.350Z,60332.85
2018-08-11T22:10:51.535Z,60332.85
2018-08-11T22:13:19.742Z,60313.54
2018-08-11T22:15:47.982Z,60308.46
2018-08-11T22:18:16.290Z,60315.57
2018-08-11T22:20:44.507Z,60335.90
2018-08-11T22:23:12.700Z,60319.64
2018-08-11T22:25:40.899Z,60347.08
2018-08-11T22:28:09.109Z,60316.59
2018-08-11T22:30:37.299Z,60330.82
2018-08-11T22:33:05.906Z,60315.57
2018-08-11T22:35:34.157Z,60343.01
2018-08-11T22:38:02.429Z,60324.72
2018-08-11T22:40:30.639Z,60323.71
2018-08-11T22:42:58.906Z,60334.88
2018-08-11T22:45:27.118Z,60336.91
2018-08-11T22:47:55.306Z,60326.75
2018-08-11T22:50:23.559Z,60335.90
2018-08-11T22:52:51.851Z,60346.06
2018-08-11T22:55:20.029Z,60333.87
2018-08-11T22:57:48.742Z,60316.59
2018-08-11T23:00:19.330Z,60325.74
2018-08-11T23:02:47.550Z,60339.96
2018-08-11T23:05:16.855Z,60355.21
2018-08-11T23:07:45.059Z,60332.85
2018-08-11T23:10:14.382Z,60328.79
2018-08-11T23:12:43.490Z,60336.91
2018-08-11T23:15:15.100Z,60346.06
2018-08-11T23:17:44.862Z,60333.87
2018-08-11T23:20:13.532Z,60349.11
2018-08-11T23:22:41.750Z,60318.62
2018-08-11T23:25:10.502Z,60316.59
2018-08-11T23:27:38.812Z,60354.19
2018-08-11T23:30:10.674Z,60333.87
2018-08-11T23:32:39.632Z,60324.72
2018-08-11T23:35:07.898Z,60331.84
2018-08-11T23:37:36.154Z,60311.51
2018-08-11T23:40:05.347Z,60311.51
2018-08-11T23:42:33.554Z,60336.91
2018-08-11T23:45:01.775Z,60363.34
2018-08-11T23:47:29.961Z,60344.03
2018-08-11T23:49:58.196Z,60328.79
2018-08-11T23:52:26.418Z,60313.54
2018-08-11T23:54:54.661Z,60319.64
2018-08-11T23:57:22.899Z,60361.30
2018-08-11T23:59:51.105Z,60316.59
